Time;durP1;ratioP1;P1;durP2;ratioP2;P2;SDS_P1;SDS_P2;PMS_P1;PMS_P2;Temp;Humidity;BMP_temperature;BMP_pressure;BME280_temperature;BME280_humidity;BME280_pressure;Samples;Min_cycle;Max_cycle;Signal;HPM_P1;HPM_P2
2022/11/22 00:00:00;;;;;;;;;;;9.80;89.70;;;10.23;56.01;96733.31;4999997;28;114489;-74
2022/11/22 00:02:27;;;;;;;;;;;9.80;89.70;;;10.21;56.53;96741.16;4993307;28;124865;-74
2022/11/22 00:04:53;;;;;;;;;;;9.80;89.80;;;10.18;56.11;96731.63;5000564;28;124299;-74
2022/11/22 00:07:19;;;;;;;;;;;9.70;90.10;;;10.17;56.70;96730.84;5000683;28;114551;-74
2022/11/22 00:09:45;;;;;;;;;;;9.70;89.80;;;10.20;56.62;96723.00;4995527;28;113683;-74
2022/11/22 00:12:12;;;;;;;;;;;9.70;90.00;;;10.21;56.61;96713.56;4993730;28;124628;-74
2022/11/22 00:14:38;;;;;;;;;;;9.80;90.00;;;10.22;56.79;96698.63;4994621;28;123732;-74
2022/11/22 00:17:05;;;;;;;;;;;9.80;90.10;;;10.23;56.94;96700.19;4992832;28;114387;-75
2022/11/22 00:19:34;;;;;;;;;;;9.80;90.10;;;10.24;56.82;96707.34;4999197;28;113887;-75
2022/11/22 00:22:01;;;;;;;;;;;9.70;90.20;;;10.22;56.93;96702.16;4989203;28;125474;-75
2022/11/22 00:24:27;;;;;;;;;;;9.80;90.20;;;10.23;56.44;96689.97;4992988;28;123833;-75
2022/11/22 00:26:53;;;;;;;;;;;9.70;90.20;;;10.25;56.93;96695.91;4989642;28;114551;-74
2022/11/22 00:29:19;;;;;;;;;;;9.80;90.30;;;10.25;56.74;96692.38;4997229;28;113710;-74
2022/11/22 00:31:46;;;;;;;;;;;9.80;90.30;;;10.25;56.85;96701.44;4992867;28;124271;-75
2022/11/22 00:34:12;;;;;;;;;;;9.80;90.40;;;10.27;56.92;96703.84;5022750;27;124040;-75
2022/11/22 00:36:38;;;;;;;;;;;9.80;90.40;;;10.27;56.92;96701.09;4996407;28;115006;-74
2022/11/22 00:39:04;;;;;;;;;;;9.80;90.50;;;10.29;57.23;96698.78;5009931;28;113616;-75
2022/11/22 00:41:31;;;;;;;;;;;9.80;90.50;;;10.29;57.44;96693.25;5017240;28;125679;-74
2022/11/22 00:43:57;;;;;;;;;;;9.80;90.60;;;10.28;57.44;96699.94;4993628;28;124149;-74
2022/11/22 00:46:23;;;;;;;;;;;9.80;90.90;;;10.25;57.43;96706.97;5026949;27;114240;-75
2022/11/22 00:48:50;;;;;;;;;;;10.20;90.30;;;10.25;57.08;96704.19;4994463;28;115967;-74
2022/11/22 00:51:16;;;;;;;;;;;9.80;90.60;;;10.24;57.42;96715.63;4992263;28;124175;-74
2022/11/22 00:53:42;;;;;;;;;;;9.80;90.60;;;10.24;57.32;96721.94;5019802;27;123671;-74
2022/11/22 00:56:09;;;;;;;;;;;9.80;90.60;;;10.20;57.09;96723.00;4997401;28;113531;-74
2022/11/22 00:58:35;;;;;;;;;;;9.70;90.60;;;10.16;57.20;96728.47;4992087;28;114245;-74
2022/11/22 01:01:01;;;;;;;;;;;9.70;90.60;;;10.11;57.52;96737.81;4993944;28;124195;-74
2022/11/22 01:03:27;;;;;;;;;;;9.70;90.70;;;10.05;57.68;96743.97;4994880;28;122745;-74
2022/11/22 01:05:54;;;;;;;;;;;9.60;90.60;;;10.00;57.91;96747.00;5001525;28;114495;-74
2022/11/22 01:08:20;;;;;;;;;;;9.60;90.70;;;9.94;57.53;96749.25;5037732;27;113456;-74
2022/11/22 01:10:46;;;;;;;;;;;9.50;90.70;;;9.91;57.70;96752.69;5036244;27;124153;-75
2022/11/22 01:13:12;;;;;;;;;;;9.50;90.80;;;9.89;57.94;96757.81;5006833;28;123677;-74
2022/11/22 01:15:39;;;;;;;;;;;9.50;90.80;;;9.88;58.52;96756.97;5007904;28;114507;-75
2022/11/22 01:18:05;;;;;;;;;;;9.50;90.90;;;9.89;58.31;96755.03;5010819;28;113621;-74
2022/11/22 01:20:31;;;;;;;;;;;9.50;91.00;;;9.88;58.39;96756.19;5010922;28;123964;-74
2022/11/22 01:22:57;;;;;;;;;;;9.50;91.00;;;9.89;58.25;96752.28;5010655;28;124598;-74
2022/11/22 01:25:24;;;;;;;;;;;9.50;91.10;;;9.90;58.58;96756.63;5032406;27;114571;-76
2022/11/22 01:27:50;;;;;;;;;;;9.40;91.10;;;9.89;58.51;96768.84;5012103;28;113671;-74
2022/11/22 01:30:18;;;;;;;;;;;9.40;91.20;;;9.85;58.67;96770.69;5010838;28;124188;-74
2022/11/22 01:32:44;;;;;;;;;;;9.50;91.30;;;9.83;58.62;96768.31;5010997;28;123682;-74
2022/11/22 01:35:10;;;;;;;;;;;9.40;91.30;;;9.83;58.62;96764.72;4987519;28;114623;-74
2022/11/22 01:37:40;;;;;;;;;;;9.40;91.30;;;9.81;58.66;96772.56;5001761;28;114960;-75
2022/11/22 01:40:08;;;;;;;;;;;9.40;91.40;;;9.80;58.75;96779.22;4993793;28;124060;-75
2022/11/22 01:42:55;;;;;;;;;;;9.40;91.40;;;9.80;59.07;96770.97;4993935;28;123338;-74
2022/11/22 01:45:29;;;;;;;;;;;9.40;91.50;;;9.78;59.08;96760.31;4992086;28;114425;-74
2022/11/22 01:48:05;;;;;;;;;;;9.40;91.50;;;9.79;58.99;96766.63;5004712;28;114098;-75
2022/11/22 01:50:34;;;;;;;;;;;9.40;91.60;;;9.78;58.94;96767.75;5011951;27;123309;-74
2022/11/22 01:53:07;;;;;;;;;;;9.40;91.60;;;9.80;59.37;96759.94;5024830;28;123917;-75
2022/11/22 01:55:34;;;;;;;;;;;9.40;91.70;;;9.77;59.25;96761.44;5007979;28;113922;-75
2022/11/22 01:58:00;;;;;;;;;;;9.40;91.70;;;9.78;59.52;96768.56;5005835;28;113937;-74
2022/11/22 02:00:29;;;;;;;;;;;9.30;91.70;;;9.77;59.47;96766.16;5006631;28;124840;-74
2022/11/22 02:02:59;;;;;;;;;;;9.30;91.80;;;9.74;59.26;96771.22;4998094;28;124114;-74
2022/11/22 02:05:28;;;;;;;;;;;9.30;91.80;;;9.74;59.40;96767.69;4998312;28;114946;-74
2022/11/22 02:08:02;;;;;;;;;;;9.30;91.90;;;9.75;59.51;96774.78;5012823;28;113593;-76
2022/11/22 02:10:29;;;;;;;;;;;9.40;91.90;;;9.75;59.65;96783.06;5012284;28;124177;-74
2022/11/22 02:12:57;;;;;;;;;;;9.30;91.90;;;9.76;59.72;96784.69;5010224;28;123139;-75
2022/11/22 02:15:23;;;;;;;;;;;9.40;92.00;;;9.77;59.50;96778.00;5013944;28;114335;-74
2022/11/22 02:17:50;;;;;;;;;;;9.30;92.00;;;9.76;59.88;96772.84;5030712;27;112313;-74
2022/11/22 02:20:16;;;;;;;;;;;9.30;92.20;;;9.76;59.92;96775.59;5010330;28;124467;-74
2022/11/22 02:22:42;;;;;;;;;;;9.30;92.20;;;9.73;60.04;96777.91;5013407;28;124184;-74
2022/11/22 02:25:18;;;;;;;;;;;9.30;92.20;;;9.71;60.31;96774.69;5012972;28;115321;-74
2022/11/22 02:27:44;;;;;;;;;;;9.30;92.20;;;9.68;60.16;96785.66;5007906;28;115118;-74
2022/11/22 02:30:11;;;;;;;;;;;9.30;92.30;;;9.66;60.65;96782.44;5012589;28;124113;-74
2022/11/22 02:32:37;;;;;;;;;;;9.30;92.50;;;9.64;60.30;96802.09;5032755;27;124077;-74
2022/11/22 02:35:18;;;;;;;;;;;9.20;92.50;;;9.62;60.45;96804.44;5010526;28;114811;-74
2022/11/22 02:37:44;;;;;;;;;;;9.20;92.60;;;9.61;61.07;96797.28;5018787;28;114082;-74
2022/11/22 02:40:13;;;;;;;;;;;9.20;92.60;;;9.62;60.74;96800.88;5037114;27;124253;-74
2022/11/22 02:42:41;;;;;;;;;;;9.20;92.70;;;9.63;61.19;96797.75;5024878;27;123860;-74
2022/11/22 02:45:08;;;;;;;;;;;9.20;92.80;;;9.63;60.97;96795.00;5013054;28;114152;-75
2022/11/22 02:47:34;;;;;;;;;;;9.20;92.90;;;9.65;61.27;96798.19;5013446;28;113286;-74
2022/11/22 02:50:00;;;;;;;;;;;9.20;92.90;;;9.65;61.36;96803.72;5010555;28;124417;-74
2022/11/22 02:52:27;;;;;;;;;;;9.20;93.00;;;9.65;61.20;96792.69;5011476;28;123859;-74
2022/11/22 02:54:53;;;;;;;;;;;9.20;93.00;;;9.65;61.19;96798.19;5010411;28;114411;-74
2022/11/22 02:57:19;;;;;;;;;;;9.20;93.10;;;9.64;61.39;96791.06;5009753;28;113657;-74
2022/11/22 02:59:46;;;;;;;;;;;9.20;93.10;;;9.66;61.22;96796.22;5011616;28;123498;-74
2022/11/22 03:02:13;;;;;;;;;;;9.20;93.10;;;9.66;61.18;96793.47;5011089;28;123651;-74
2022/11/22 03:04:39;;;;;;;;;;;9.30;93.20;;;9.68;61.60;96805.75;4993351;28;113685;-74
2022/11/22 03:07:05;;;;;;;;;;;9.20;93.20;;;9.66;61.74;96805.31;5009308;28;113661;-74
2022/11/22 03:09:31;;;;;;;;;;;9.20;93.20;;;9.66;61.62;96805.31;5007790;28;124080;-74
2022/11/22 03:11:58;;;;;;;;;;;9.20;93.30;;;9.68;61.60;96811.25;5010045;28;124202;-74
2022/11/22 03:14:25;;;;;;;;;;;9.20;93.30;;;9.70;61.99;96802.66;5007687;28;115393;-74
2022/11/22 03:16:51;;;;;;;;;;;9.20;93.30;;;9.69;61.77;96815.63;5014555;28;114699;-74
2022/11/22 03:19:17;;;;;;;;;;;9.30;93.40;;;9.66;61.54;96810.81;5028668;27;123741;-74
2022/11/22 03:21:44;;;;;;;;;;;9.30;93.40;;;9.65;62.03;96811.97;5007672;28;124591;-74
2022/11/22 03:24:10;;;;;;;;;;;9.20;93.40;;;9.64;61.95;96829.66;5008574;28;113597;-74
2022/11/22 03:26:37;;;;;;;;;;;9.20;93.50;;;9.62;61.83;96820.16;5009423;28;113797;-75
2022/11/22 03:29:03;;;;;;;;;;;9.20;93.50;;;9.62;61.96;96831.19;5012586;28;124734;-74
2022/11/22 03:31:49;;;;;;;;;;;9.20;93.50;;;9.63;61.99;96828.06;5009934;28;124205;-74
2022/11/22 03:34:15;;;;;;;;;;;9.20;93.50;;;9.63;62.18;96833.59;5013124;28;114340;-75
2022/11/22 03:36:42;;;;;;;;;;;9.20;93.60;;;9.64;61.97;96835.19;5009995;28;113055;-74
2022/11/22 03:39:08;;;;;;;;;;;9.20;93.60;;;9.65;61.87;96844.28;5009187;28;124265;-74
2022/11/22 03:41:34;;;;;;;;;;;9.20;93.60;;;9.64;62.27;96832.41;4999414;28;123936;-76
2022/11/22 03:44:01;;;;;;;;;;;9.20;93.60;;;9.66;62.14;96835.63;5005568;28;114460;-74
2022/11/22 03:46:27;;;;;;;;;;;9.20;93.70;;;9.66;61.94;96838.38;5009851;28;113202;-74
2022/11/22 03:48:53;;;;;;;;;;;9.20;93.60;;;9.66;62.01;96821.03;5007747;28;124338;-74
2022/11/22 03:51:38;;;;;;;;;;;9.30;93.70;;;9.69;62.15;96829.41;5008819;28;123907;-74
2022/11/22 03:54:05;;;;;;;;;;;9.20;93.70;;;9.67;62.23;96825.41;5011998;28;114641;-74
2022/11/22 03:56:31;;;;;;;;;;;9.20;93.70;;;9.68;61.92;96827.81;5008960;28;113494;-74
2022/11/22 03:58:57;;;;;;;;;;;9.30;93.70;;;9.69;62.18;96832.16;5007118;28;124255;-74
2022/11/22 04:01:24;;;;;;;;;;;9.30;93.80;;;9.71;62.23;96827.09;5010187;28;122915;-75
2022/11/22 04:03:51;;;;;;;;;;;9.30;93.80;;;9.72;62.25;96828.72;4994733;28;114986;-74
2022/11/22 04:06:17;;;;;;;;;;;9.30;93.80;;;9.75;62.17;96824.41;5008412;28;114478;-75
2022/11/22 04:08:43;;;;;;;;;;;9.30;93.80;;;9.78;61.98;96828.44;5008338;28;124063;-74
2022/11/22 04:11:11;;;;;;;;;;;9.30;93.80;;;9.81;62.05;96836.00;5008006;28;124349;-74
2022/11/22 04:16:22;;;;;;;;;;;9.40;93.80;;;9.84;62.13;96838.06;5001313;28;114162;-74
2022/11/22 04:18:48;;;;;;;;;;;9.40;93.80;;;9.83;61.73;96836.44;5007776;28;124359;-76
2022/11/22 04:21:32;;;;;;;;;;;9.30;93.80;;;9.84;62.08;96843.56;5009969;28;123735;-75
2022/11/22 04:26:54;;;;;;;;;;;9.30;93.80;;;9.80;61.80;96840.69;5007580;28;114230;-74
2022/11/22 04:29:21;;;;;;;;;;;9.30;93.80;;;9.80;62.01;96842.66;5007783;28;124687;-74
2022/11/22 04:34:38;;;;;;;;;;;9.30;93.80;;;9.75;62.18;96843.72;5008708;28;115718;-74
2022/11/22 04:37:04;;;;;;;;;;;9.30;93.80;;;9.73;62.06;96843.31;5008381;28;113114;-74
2022/11/22 04:39:31;;;;;;;;;;;9.30;93.90;;;9.71;62.38;96849.16;4992065;28;124045;-74
2022/11/22 04:44:43;;;;;;;;;;;9.30;93.90;;;9.67;62.26;96840.00;5008370;28;115191;-74
2022/11/22 04:47:10;;;;;;;;;;;9.30;93.90;;;9.68;62.17;96847.13;4992064;28;113109;-74
2022/11/22 04:49:36;;;;;;;;;;;9.30;93.90;;;9.66;62.56;96843.91;5006232;28;124042;-74
2022/11/22 04:54:48;;;;;;;;;;;9.30;93.90;;;9.70;62.25;96841.25;5012949;28;116279;-74
2022/11/22 04:57:15;;;;;;;;;;;9.30;93.90;;;9.70;62.28;96839.28;5011814;28;114611;-74
2022/11/22 04:59:41;;;;;;;;;;;9.30;93.90;;;9.72;62.26;96839.75;4974594;28;123439;-75
2022/11/22 05:02:07;;;;;;;;;;;9.40;94.00;;;9.73;62.23;96833.06;5008323;28;123604;-74
2022/11/22 05:04:33;;;;;;;;;;;9.30;93.90;;;9.73;62.03;96833.06;5043310;27;113436;-75
2022/11/22 05:07:00;;;;;;;;;;;9.30;94.00;;;9.75;62.19;96835.44;5007469;28;113663;-74
2022/11/22 05:09:27;;;;;;;;;;;9.30;93.90;;;9.74;62.05;96834.66;5035330;27;122363;-75
2022/11/22 05:11:53;;;;;;;;;;;9.30;93.90;;;9.74;61.84;96836.63;5003204;28;123839;-74
2022/11/22 05:14:19;;;;;;;;;;;9.30;93.90;;;9.75;61.92;96843.72;5006769;28;113895;-75
2022/11/22 05:16:45;;;;;;;;;;;9.30;93.80;;;9.74;62.02;96850.41;5004558;28;112042;-75
2022/11/22 05:19:12;;;;;;;;;;;9.30;93.80;;;9.73;62.06;96855.13;5007699;28;124123;-74
2022/11/22 05:21:39;;;;;;;;;;;9.30;93.80;;;9.73;61.64;96870.88;5007887;28;123609;-74
2022/11/22 05:24:06;;;;;;;;;;;9.30;93.80;;;9.72;61.75;96874.78;5011691;28;114149;-74
2022/11/22 05:26:35;;;;;;;;;;;9.30;93.80;;;9.68;61.76;96880.19;5011483;28;114289;-75
2022/11/22 05:29:04;;;;;;;;;;;9.20;93.80;;;9.64;61.70;96887.56;5005885;28;124515;-74
2022/11/22 05:31:32;;;;;;;;;;;9.20;93.80;;;9.60;61.82;96881.16;5008949;28;124194;-74
2022/11/22 05:33:59;;;;;;;;;;;9.20;93.80;;;9.58;62.14;96869.69;5012848;28;114560;-74
2022/11/22 05:36:26;;;;;;;;;;;9.10;93.80;;;9.56;61.90;96872.00;4996048;28;113019;-75
2022/11/22 05:39:12;;;;;;;;;;;9.10;93.90;;;9.58;61.91;96880.72;5009780;28;124376;-76
2022/11/22 05:41:54;;;;;;;;;;;9.10;93.90;;;9.57;62.20;96878.31;4998481;28;124067;-75
2022/11/22 05:44:21;;;;;;;;;;;9.10;93.90;;;9.55;62.09;96884.19;5006649;28;115452;-75
2022/11/22 05:46:48;;;;;;;;;;;9.10;93.90;;;9.54;61.97;96898.31;5009419;28;114883;-74
2022/11/22 05:49:14;;;;;;;;;;;9.10;93.90;;;9.51;61.94;96881.34;5006547;28;124511;-74
2022/11/22 05:51:40;;;;;;;;;;;9.10;93.80;;;9.47;62.00;96885.16;5007234;28;123878;-74
2022/11/22 05:54:08;;;;;;;;;;;9.10;93.80;;;9.47;62.32;96882.38;5009393;28;113411;-74
2022/11/22 05:56:34;;;;;;;;;;;9.00;93.80;;;9.46;61.95;96894.56;5008126;28;113733;-74
2022/11/22 05:59:00;;;;;;;;;;;9.00;93.80;;;9.43;61.95;96889.75;5006937;28;124118;-74
2022/11/22 06:01:27;;;;;;;;;;;9.00;93.80;;;9.42;62.18;96888.16;5009785;28;124362;-74
2022/11/22 06:03:53;;;;;;;;;;;9.00;93.80;;;9.44;61.93;96891.38;5012808;28;113023;-74
2022/11/22 06:06:19;;;;;;;;;;;9.00;93.80;;;9.45;61.94;96890.19;5010633;28;113509;-74
2022/11/22 06:08:46;;;;;;;;;;;9.00;93.80;;;9.48;62.20;96893.06;5009891;28;124164;-74
2022/11/22 06:11:17;;;;;;;;;;;9.00;93.90;;;9.52;62.39;96904.19;4996163;28;122840;-76
2022/11/22 06:13:45;;;;;;;;;;;9.10;93.90;;;9.54;62.11;96910.16;5032496;27;113611;-74
2022/11/22 06:16:11;;;;;;;;;;;9.10;93.90;;;9.58;62.13;96919.31;5035877;27;113312;-73
2022/11/22 06:18:37;;;;;;;;;;;9.10;93.90;;;9.59;62.13;96909.91;5003782;28;124371;-74
2022/11/22 06:21:06;;;;;;;;;;;9.10;93.90;;;9.61;61.89;96917.81;5009506;28;124598;-74
2022/11/22 06:23:32;;;;;;;;;;;9.10;93.90;;;9.60;62.04;96917.00;5010564;28;114660;-74
2022/11/22 06:26:02;;;;;;;;;;;9.10;93.90;;;9.61;61.97;96915.84;5010239;28;113757;-74
2022/11/22 06:28:29;;;;;;;;;;;9.10;93.80;;;9.61;62.02;96909.53;4997165;28;124163;-74
2022/11/22 06:31:14;;;;;;;;;;;9.10;93.80;;;9.62;61.82;96916.69;4996622;28;123883;-74
2022/11/22 06:33:41;;;;;;;;;;;9.20;93.90;;;9.61;61.85;96926.88;4991843;28;116650;-75
2022/11/22 06:36:09;;;;;;;;;;;9.10;93.90;;;9.60;61.97;96922.53;5008224;28;114672;-76
2022/11/22 06:38:35;;;;;;;;;;;9.10;93.90;;;9.61;61.87;96939.88;4999236;28;124765;-74
2022/11/22 06:41:04;;;;;;;;;;;9.10;93.90;;;9.60;61.88;96933.56;4998796;28;124087;-75
2022/11/22 06:43:31;;;;;;;;;;;9.10;93.90;;;9.59;62.04;96937.47;5002963;28;113598;-74
2022/11/22 06:45:58;;;;;;;;;;;9.10;93.90;;;9.58;62.04;96946.09;5031859;27;114131;-75
2022/11/22 06:48:25;;;;;;;;;;;9.10;93.90;;;9.54;62.20;96951.50;4996081;28;123955;-75
2022/11/22 06:50:58;;;;;;;;;;;9.10;93.90;;;9.52;62.16;96965.63;5021069;28;123657;-85
2022/11/22 06:53:27;;;;;;;;;;;9.10;93.90;;;9.50;61.86;96970.69;5019037;28;112435;-81
2022/11/22 06:56:07;;;;;;;;;;;9.10;93.90;;;9.51;62.18;96974.28;5004928;28;113147;-75
2022/11/22 06:58:34;;;;;;;;;;;9.00;93.90;;;9.49;62.38;96982.88;4995462;28;123959;-75
2022/11/22 07:01:06;;;;;;;;;;;9.10;94.00;;;9.49;62.13;96982.88;4990507;28;124251;-75
2022/11/22 07:03:36;;;;;;;;;;;9.00;93.90;;;9.48;62.47;96994.25;4998393;28;114189;-75
2022/11/22 07:06:04;;;;;;;;;;;9.00;93.90;;;9.46;61.99;97000.13;4990028;28;114005;-75
2022/11/22 07:08:30;;;;;;;;;;;9.00;93.90;;;9.49;62.25;97004.13;5001145;28;124209;-75
2022/11/22 07:11:04;;;;;;;;;;;9.00;93.90;;;9.52;62.05;97011.69;4999554;28;123015;-76
2022/11/22 07:13:31;;;;;;;;;;;9.10;94.00;;;9.55;62.19;97007.44;4999857;28;114506;-76
2022/11/22 07:15:59;;;;;;;;;;;9.10;94.00;;;9.57;61.92;97011.47;5036404;27;113034;-80
2022/11/22 07:18:26;;;;;;;;;;;9.10;94.00;;;9.60;61.89;97012.72;5009811;28;123364;-78
2022/11/22 07:20:52;;;;;;;;;;;9.10;94.00;;;9.62;61.79;97013.97;5006713;28;124814;-75
2022/11/22 07:23:18;;;;;;;;;;;9.10;94.00;;;9.65;61.95;97007.75;4997448;28;114154;-76
2022/11/22 07:25:46;;;;;;;;;;;9.20;94.00;;;9.68;61.72;97023.59;5010606;28;114226;-75
2022/11/22 07:28:13;;;;;;;;;;;9.20;93.90;;;9.66;61.33;97014.84;5000945;28;124016;-74
2022/11/22 07:30:40;;;;;;;;;;;9.20;93.80;;;9.66;61.40;97030.59;5002009;28;124182;-74
2022/11/22 07:33:07;;;;;;;;;;;9.20;93.80;;;9.65;61.33;97026.25;5000452;28;113571;-75
2022/11/22 07:35:35;;;;;;;;;;;9.20;93.70;;;9.67;61.13;97032.19;4998492;28;113487;-73
2022/11/22 07:38:01;;;;;;;;;;;9.20;93.70;;;9.68;61.18;97036.59;5000551;28;124263;-75
2022/11/22 07:40:27;;;;;;;;;;;9.20;93.70;;;9.68;60.92;97037.38;5031427;27;123968;-75
2022/11/22 07:42:54;;;;;;;;;;;9.20;93.60;;;9.66;60.97;97038.88;5000016;28;114428;-75
2022/11/22 07:45:20;;;;;;;;;;;10.50;93.50;;;9.63;60.83;97043.13;5025840;27;113695;-74
2022/11/22 07:47:46;;;;;;;;;;;9.10;93.40;;;9.64;60.82;97049.44;5006703;28;124662;-74
2022/11/22 07:50:13;;;;;;;;;;;9.10;93.30;;;9.62;60.60;97047.06;4990626;28;123766;-76
2022/11/22 07:52:39;;;;;;;;;;;9.10;93.30;;;9.63;60.73;97058.88;4988515;28;113517;-74
2022/11/22 07:55:06;;;;;;;;;;;9.20;93.30;;;9.63;60.85;97051.41;5002614;28;113000;-74
2022/11/22 07:57:33;;;;;;;;;;;9.20;93.30;;;9.65;60.72;97043.59;4997775;28;123915;-75
2022/11/22 07:59:59;;;;;;;;;;;9.20;93.30;;;9.68;60.67;97053.94;4993310;28;124592;-74
2022/11/22 08:02:25;;;;;;;;;;;9.20;93.40;;;9.70;60.76;97053.59;5004589;28;114212;-75
2022/11/22 08:04:52;;;;;;;;;;;9.20;93.40;;;9.70;60.58;97048.88;4989980;28;113803;-75
2022/11/22 08:07:19;;;;;;;;;;;9.20;93.30;;;9.70;60.49;97048.88;4997413;28;124217;-74
2022/11/22 08:09:45;;;;;;;;;;;9.20;93.30;;;9.69;60.50;97055.53;4987614;28;124264;-75
2022/11/22 08:12:11;;;;;;;;;;;9.20;93.30;;;9.73;60.68;97063.91;4994527;28;115324;-75
2022/11/22 08:14:37;;;;;;;;;;;9.20;93.30;;;9.74;60.55;97054.47;5025629;27;114561;-74
2022/11/22 08:17:04;;;;;;;;;;;9.30;93.30;;;9.74;60.78;97055.28;5010203;28;124452;-74
2022/11/22 08:19:30;;;;;;;;;;;9.30;93.30;;;9.75;60.54;97056.06;5040199;27;124327;-74
2022/11/22 08:21:56;;;;;;;;;;;9.30;93.20;;;9.77;60.35;97058.50;5010179;28;113743;-74
2022/11/22 08:24:24;;;;;;;;;;;9.30;93.30;;;9.77;60.75;97048.25;5004826;28;113502;-74
2022/11/22 08:26:51;;;;;;;;;;;9.30;93.20;;;9.79;60.49;97057.00;5022893;27;123021;-76
2022/11/22 08:29:17;;;;;;;;;;;9.30;93.20;;;9.79;60.41;97061.72;4992596;28;122699;-74
2022/11/22 08:31:43;;;;;;;;;;;9.30;93.50;;;9.78;60.22;97054.56;5037381;27;113392;-75
2022/11/22 08:34:10;;;;;;;;;;;9.30;93.20;;;9.78;60.21;97049.06;5039217;27;113004;-74
2022/11/22 08:36:37;;;;;;;;;;;9.30;93.20;;;9.80;60.37;97052.28;5003695;28;124050;-75
2022/11/22 08:39:04;;;;;;;;;;;9.30;93.20;;;9.82;60.65;97049.97;4986218;28;123880;-76
2022/11/22 08:41:30;;;;;;;;;;;9.30;93.20;;;9.84;60.45;97055.94;5000796;28;114809;-74
2022/11/22 08:43:56;;;;;;;;;;;9.30;93.20;;;9.88;60.58;97062.34;5007145;28;113604;-74
2022/11/22 08:46:23;;;;;;;;;;;9.40;93.20;;;9.90;60.38;97057.28;5006421;28;123231;-75
2022/11/22 08:48:51;;;;;;;;;;;9.40;93.20;;;9.93;60.30;97045.56;4998914;28;124045;-74
2022/11/22 08:51:17;;;;;;;;;;;9.40;93.20;;;9.96;60.33;97040.13;5020460;27;114171;-74
2022/11/22 08:53:43;;;;;;;;;;;9.40;93.20;;;10.01;60.11;97039.09;5040267;27;113656;-75
2022/11/22 08:56:12;;;;;;;;;;;9.50;93.20;;;10.04;59.89;97041.13;5008293;28;124393;-76
2022/11/22 08:58:39;;;;;;;;;;;9.50;93.20;;;10.07;60.37;97040.41;4990249;28;124092;-75
2022/11/22 09:01:13;;;;;;;;;;;9.50;93.20;;;10.10;59.99;97045.25;4998339;28;115169;-75
2022/11/22 09:03:41;;;;;;;;;;;9.60;93.20;;;10.11;60.36;97035.03;5002243;28;113064;-75
2022/11/22 09:06:16;;;;;;;;;;;9.60;93.20;;;10.12;59.93;97026.38;5005116;28;124508;-79
2022/11/22 09:08:42;;;;;;;;;;;9.60;93.20;;;10.16;60.30;97029.25;5000973;28;124634;-77
2022/11/22 09:11:16;;;;;;;;;;;9.60;93.20;;;10.16;59.76;97027.28;4999995;28;114228;-76
2022/11/22 09:13:43;;;;;;;;;;;9.60;93.10;;;10.16;60.12;97013.50;4993568;28;114336;-76
2022/11/22 09:16:12;;;;;;;;;;;9.70;93.10;;;10.18;59.83;97024.97;4993475;28;124432;-74
2022/11/22 09:18:38;;;;;;;;;;;9.70;93.10;;;10.21;59.86;97014.38;5007291;28;124638;-75
2022/11/22 09:21:07;;;;;;;;;;;9.70;93.00;;;10.22;59.75;97019.53;5026082;27;113395;-74
2022/11/22 09:23:33;;;;;;;;;;;9.70;93.30;;;10.23;59.71;97015.63;5006409;28;113746;-75
2022/11/22 09:26:05;;;;;;;;;;;9.70;93.00;;;10.25;59.95;97018.03;5008576;28;125058;-77
2022/11/22 09:28:32;;;;;;;;;;;9.70;93.00;;;10.29;60.09;97024.47;5005298;28;123933;-76
2022/11/22 09:31:05;;;;;;;;;;;9.80;93.10;;;10.33;59.68;97037.22;5009080;28;113879;-75
2022/11/22 09:33:33;;;;;;;;;;;9.80;93.00;;;10.35;59.47;97045.16;5009660;28;113510;-75
2022/11/22 09:36:27;;;;;;;;;;;9.80;93.00;;;10.40;59.43;97053.19;4998068;28;123989;-75
2022/11/22 09:38:54;;;;;;;;;;;9.90;93.10;;;10.43;59.67;97060.75;4993019;28;124525;-75
2022/11/22 09:41:47;;;;;;;;;;;9.90;93.00;;;10.48;59.44;97059.69;4995041;28;114423;-75
2022/11/22 09:44:51;;;;;;;;;;;9.90;93.00;;;10.50;59.24;97068.41;5023153;27;113159;-76
2022/11/22 09:47:36;;;;;;;;;;;9.90;92.90;;;10.52;59.28;97071.63;4993908;28;124879;-75
2022/11/22 09:50:05;;;;;;;;;;;10.00;92.50;;;10.54;59.21;97061.81;4993218;28;124185;-75
2022/11/22 09:52:47;;;;;;;;;;;10.00;92.50;;;10.57;59.17;97069.41;5005641;28;115021;-75
2022/11/22 09:55:23;;;;;;;;;;;10.00;92.40;;;10.59;59.46;97080.91;4989117;28;114876;-75
2022/11/22 09:58:29;;;;;;;;;;;10.10;92.40;;;10.61;59.44;97084.13;5026743;27;124327;-74
2022/11/22 10:01:02;;;;;;;;;;;10.10;92.40;;;10.63;59.06;97086.50;4983649;28;123985;-75
2022/11/22 10:03:39;;;;;;;;;;;10.10;92.40;;;10.64;59.04;97084.53;4997325;28;114141;-76
2022/11/22 10:06:11;;;;;;;;;;;10.10;92.40;;;10.66;59.08;97088.56;4999104;28;113292;-75
2022/11/22 10:09:03;;;;;;;;;;;10.10;92.30;;;10.68;58.99;97090.97;4995342;28;124307;-74
2022/11/22 10:11:55;;;;;;;;;;;10.20;92.30;;;10.70;58.72;97094.19;5003471;28;123635;-75
2022/11/22 10:14:22;;;;;;;;;;;10.10;92.20;;;10.69;58.52;97098.09;4994802;28;113601;-75
2022/11/22 10:17:26;;;;;;;;;;;10.20;92.10;;;10.68;58.98;97102.81;5002476;28;113662;-73
2022/11/22 10:20:00;;;;;;;;;;;10.20;92.10;;;10.70;58.64;97100.50;5005383;28;124066;-76
2022/11/22 10:22:28;;;;;;;;;;;10.20;92.10;;;10.74;58.60;97100.59;5007108;28;124520;-77
2022/11/22 10:24:56;;;;;;;;;;;10.20;92.10;;;10.77;58.58;97102.63;5035706;27;113305;-74
2022/11/22 10:27:22;;;;;;;;;;;10.30;92.10;;;10.79;58.49;97106.66;4984570;28;113053;-76
2022/11/22 10:30:03;;;;;;;;;;;10.30;92.00;;;10.82;58.82;97108.69;5005083;28;126549;-76
2022/11/22 10:32:36;;;;;;;;;;;10.30;92.00;;;10.86;58.95;97103.28;4996123;28;122952;-76
2022/11/22 10:35:19;;;;;;;;;;;10.30;92.00;;;10.89;58.60;97099.81;5010589;28;113783;-75
2022/11/22 10:38:33;;;;;;;;;;;10.30;92.00;;;10.90;58.03;97112.44;4996285;28;113639;-76
2022/11/22 10:41:38;;;;;;;;;;;10.40;91.90;;;10.90;57.98;97106.94;4980650;28;123512;-75
2022/11/22 10:44:29;;;;;;;;;;;10.40;91.80;;;10.91;58.04;97105.78;5007383;28;123852;-77
2022/11/22 10:47:09;;;;;;;;;;;10.40;91.70;;;10.94;58.01;97105.06;4996548;28;115624;-76
2022/11/22 10:50:10;;;;;;;;;;;10.40;91.70;;;10.95;57.48;97108.63;4989865;28;113815;-76
2022/11/22 10:52:51;;;;;;;;;;;10.40;91.50;;;10.95;57.13;97111.38;4993040;28;124144;-78
2022/11/22 10:55:42;;;;;;;;;;;10.40;91.40;;;10.92;57.32;97107.38;4988451;28;123912;-76
2022/11/22 10:58:32;;;;;;;;;;;10.40;91.20;;;10.91;56.77;97100.25;4995413;28;114390;-75
2022/11/22 11:01:30;;;;;;;;;;;10.40;91.20;;;10.93;56.81;97108.97;5007047;28;113677;-78
2022/11/22 11:03:58;;;;;;;;;;;10.40;91.20;;;10.95;56.62;97092.84;4997332;28;124415;-75
2022/11/22 11:06:33;;;;;;;;;;;10.40;91.10;;;10.98;56.78;97094.88;4994164;28;124127;-76
2022/11/22 11:09:12;;;;;;;;;;;10.50;91.00;;;11.01;56.50;97096.94;5029703;27;114804;-76
2022/11/22 11:11:40;;;;;;;;;;;10.50;90.90;;;11.01;56.29;97096.94;4989121;28;113717;-74
2022/11/22 11:14:18;;;;;;;;;;;10.50;90.70;;;11.02;56.08;97090.28;5003346;28;124706;-74
2022/11/22 11:16:45;;;;;;;;;;;10.50;90.60;;;11.02;55.58;97095.78;5008340;28;123700;-75
2022/11/22 11:19:19;;;;;;;;;;;10.60;90.50;;;11.04;55.48;97093.47;5008827;28;114495;-75
2022/11/22 11:22:10;;;;;;;;;;;10.60;90.40;;;11.04;55.18;97092.66;5008707;28;113899;-75
2022/11/22 11:24:39;;;;;;;;;;;10.60;90.10;;;10.96;54.61;97091.69;5008605;28;124065;-75
2022/11/22 11:27:06;;;;;;;;;;;10.50;89.50;;;10.93;54.73;97084.09;5019738;28;123065;-75
2022/11/22 11:29:37;;;;;;;;;;;10.50;89.40;;;10.92;54.24;97085.28;5007035;28;114702;-75
2022/11/22 11:32:15;;;;;;;;;;;10.50;89.30;;;10.95;53.99;97081.00;5007784;28;113925;-75
2022/11/22 11:35:03;;;;;;;;;;;10.50;89.00;;;10.95;53.70;97072.72;4989369;28;123623;-75
2022/11/22 11:37:35;;;;;;;;;;;10.50;88.70;;;10.95;53.83;97078.22;5009565;28;125257;-75
2022/11/22 11:40:03;;;;;;;;;;;10.50;88.30;;;10.96;53.76;97068.78;4997777;28;115703;-75
2022/11/22 11:42:31;;;;;;;;;;;10.50;88.40;;;10.97;53.09;97073.94;5009515;28;114374;-75
2022/11/22 11:45:28;;;;;;;;;;;10.50;88.00;;;11.00;53.33;97070.47;5016578;28;123926;-75
2022/11/22 11:47:54;;;;;;;;;;;10.50;88.00;;;11.01;53.17;97061.00;5007769;28;124194;-75